createdAt,value
2018-12-30T00:02:08.811Z,2.90
2018-12-30T00:04:39.321Z,2.90
2018-12-30T00:07:10.162Z,2.90
2018-12-30T00:09:40.649Z,2.90
2018-12-30T00:12:11.160Z,2.80
2018-12-30T00:14:41.702Z,2.80
2018-12-30T00:17:12.217Z,2.80
2018-12-30T00:19:42.794Z,2.80
2018-12-30T00:22:13.366Z,2.80
2018-12-30T00:24:43.837Z,2.80
2018-12-30T00:27:14.355Z,2.80
2018-12-30T00:29:44.834Z,2.80
2018-12-30T00:32:15.323Z,2.80
2018-12-30T00:34:45.972Z,2.80
2018-12-30T00:37:16.469Z,2.80
2018-12-30T00:39:46.975Z,2.80
2018-12-30T00:42:17.444Z,2.80
2018-12-30T00:44:47.949Z,2.90
2018-12-30T00:47:18.452Z,2.80
2018-12-30T00:49:48.923Z,2.90
2018-12-30T00:52:19.433Z,2.90
2018-12-30T00:54:49.928Z,2.90
2018-12-30T00:57:20.479Z,2.80
2018-12-30T00:59:50.995Z,2.80
2018-12-30T01:02:21.464Z,2.80
2018-12-30T01:04:51.963Z,2.80
2018-12-30T01:07:22.459Z,2.80
2018-12-30T01:09:52.932Z,2.80
2018-12-30T01:12:23.432Z,2.80
2018-12-30T01:14:53.946Z,2.80
2018-12-30T01:17:24.417Z,2.90
2018-12-30T01:19:54.921Z,2.90
2018-12-30T01:22:25.503Z,2.80
2018-12-30T01:24:57.898Z,2.80
2018-12-30T01:27:28.400Z,2.80
2018-12-30T01:29:58.870Z,2.80
2018-12-30T01:32:29.359Z,2.80
2018-12-30T01:35:00.262Z,2.80
2018-12-30T01:37:30.807Z,2.70
2018-12-30T01:40:01.311Z,2.70
2018-12-30T01:42:31.816Z,2.70
2018-12-30T01:45:02.296Z,2.80
2018-12-30T01:47:32.791Z,2.80
2018-12-30T01:50:03.296Z,2.70
2018-12-30T01:52:34.442Z,2.80
2018-12-30T01:55:05.883Z,2.80
2018-12-30T01:57:36.353Z,2.80
2018-12-30T02:00:07.586Z,2.80
2018-12-30T02:02:38.062Z,2.80
2018-12-30T02:05:08.558Z,2.80
2018-12-30T02:07:39.038Z,2.70
2018-12-30T02:10:10.051Z,2.80
2018-12-30T02:12:40.515Z,2.70
2018-12-30T02:15:11.011Z,2.60
2018-12-30T02:17:41.483Z,2.60
2018-12-30T02:20:12.001Z,2.50
2018-12-30T02:22:42.467Z,2.50
2018-12-30T02:25:12.975Z,2.60
2018-12-30T02:27:43.449Z,2.60
2018-12-30T02:30:14.627Z,2.60
2018-12-30T02:32:45.209Z,2.70
2018-12-30T02:35:15.682Z,2.70
2018-12-30T02:37:46.192Z,2.70
2018-12-30T02:40:16.691Z,2.80
2018-12-30T02:42:47.167Z,2.80
2018-12-30T02:45:17.663Z,2.80
2018-12-30T02:47:48.140Z,2.80
2018-12-30T02:50:18.642Z,2.80
2018-12-30T02:52:49.112Z,2.80
2018-12-30T02:55:19.647Z,2.80
2018-12-30T02:57:50.156Z,2.80
2018-12-30T03:00:20.659Z,2.70
2018-12-30T03:02:51.133Z,2.70
2018-12-30T03:05:22.011Z,2.70
2018-12-30T03:07:52.505Z,2.70
2018-12-30T03:10:23.005Z,2.70
2018-12-30T03:12:53.474Z,2.70
2018-12-30T03:15:23.965Z,2.70
2018-12-30T03:17:54.463Z,2.70
2018-12-30T03:20:24.952Z,2.70
2018-12-30T03:22:55.451Z,2.80
2018-12-30T03:25:25.924Z,2.80
2018-12-30T03:27:56.428Z,2.80
2018-12-30T03:30:26.898Z,2.80
2018-12-30T03:32:57.403Z,2.80
2018-12-30T03:35:27.880Z,2.80
2018-12-30T03:37:58.457Z,2.80
2018-12-30T03:40:28.952Z,2.80
2018-12-30T03:42:59.431Z,2.80
2018-12-30T03:45:29.901Z,2.80
2018-12-30T03:48:00.399Z,2.80
2018-12-30T03:50:30.873Z,2.80
2018-12-30T03:53:01.380Z,2.80
2018-12-30T03:55:31.870Z,2.80
2018-12-30T03:58:02.365Z,2.80
2018-12-30T04:00:32.845Z,2.70
2018-12-30T04:03:03.358Z,2.70
2018-12-30T04:05:33.828Z,2.60
2018-12-30T04:08:04.321Z,2.60
2018-12-30T04:10:34.830Z,2.50
2018-12-30T04:13:05.333Z,2.50
2018-12-30T04:15:35.797Z,2.50
2018-12-30T04:18:07.064Z,2.60
2018-12-30T04:20:37.536Z,2.60
2018-12-30T04:23:09.514Z,2.60
2018-12-30T04:25:39.984Z,2.70
2018-12-30T04:28:10.480Z,2.70
2018-12-30T04:30:40.945Z,2.70
2018-12-30T04:33:11.502Z,2.70
2018-12-30T04:35:41.969Z,2.70
2018-12-30T04:38:12.468Z,2.70
2018-12-30T04:40:42.939Z,2.70
2018-12-30T04:43:13.440Z,2.70
2018-12-30T04:45:43.907Z,2.80
2018-12-30T04:48:14.411Z,2.80
2018-12-30T04:50:44.874Z,2.80
2018-12-30T04:53:15.366Z,2.70
2018-12-30T04:55:45.870Z,2.70
2018-12-30T04:58:18.242Z,2.70
2018-12-30T05:00:48.717Z,2.70
2018-12-30T05:03:19.223Z,2.70
2018-12-30T05:05:49.741Z,2.80
2018-12-30T05:08:20.220Z,2.80
2018-12-30T05:10:50.707Z,2.80
2018-12-30T05:13:21.210Z,2.80
2018-12-30T05:15:51.693Z,2.80
2018-12-30T05:18:22.175Z,2.80
2018-12-30T05:20:52.658Z,2.80
2018-12-30T05:23:23.177Z,2.80
2018-12-30T05:25:53.630Z,2.80
2018-12-30T05:28:24.131Z,2.70
2018-12-30T05:30:54.655Z,2.70
2018-12-30T05:33:25.112Z,2.70
2018-12-30T05:35:55.635Z,2.70
2018-12-30T05:38:26.115Z,2.70
2018-12-30T05:40:56.622Z,2.70
2018-12-30T05:43:27.102Z,2.60
2018-12-30T05:45:57.598Z,2.60
2018-12-30T05:48:28.063Z,2.60
2018-12-30T05:50:58.556Z,2.60
2018-12-30T05:53:29.045Z,2.60
2018-12-30T05:55:59.518Z,2.60
2018-12-30T05:58:30.019Z,2.60
2018-12-30T06:01:00.497Z,2.50
2018-12-30T06:03:30.990Z,2.50
2018-12-30T06:06:01.464Z,2.50
2018-12-30T06:08:31.975Z,2.50
2018-12-30T06:11:02.518Z,2.50
2018-12-30T06:13:33.012Z,2.50
2018-12-30T06:16:03.527Z,2.50
2018-12-30T06:18:33.993Z,2.50
2018-12-30T06:21:04.506Z,2.50
2018-12-30T06:23:35.041Z,2.50
2018-12-30T06:26:06.458Z,2.50
2018-12-30T06:28:36.921Z,2.40
2018-12-30T06:31:07.424Z,2.50
2018-12-30T06:33:37.892Z,2.40
2018-12-30T06:36:10.218Z,2.40
2018-12-30T06:38:40.685Z,2.40
2018-12-30T06:41:11.190Z,2.40
2018-12-30T06:43:41.663Z,2.50
2018-12-30T06:46:12.230Z,2.50
2018-12-30T06:48:42.729Z,2.50
2018-12-30T06:51:13.202Z,2.50
2018-12-30T06:53:43.695Z,2.60
2018-12-30T06:56:14.177Z,2.60
2018-12-30T06:58:44.671Z,2.60
2018-12-30T07:01:15.177Z,2.50
2018-12-30T07:03:45.656Z,2.60
2018-12-30T07:06:16.163Z,2.60
2018-12-30T07:08:46.664Z,2.60
2018-12-30T07:11:17.156Z,2.60
2018-12-30T07:13:47.627Z,2.60
2018-12-30T07:16:19.687Z,2.50
2018-12-30T07:18:50.150Z,2.60
2018-12-30T07:21:20.665Z,2.60
2018-12-30T07:23:51.137Z,2.70
2018-12-30T07:26:21.640Z,2.70
2018-12-30T07:28:52.111Z,2.70
2018-12-30T07:31:22.616Z,2.70
2018-12-30T07:33:53.081Z,2.70
2018-12-30T07:36:23.575Z,2.70
2018-12-30T07:38:54.195Z,2.60
2018-12-30T07:41:24.766Z,2.70
2018-12-30T07:43:55.234Z,2.70
2018-12-30T07:46:25.741Z,2.70
2018-12-30T07:48:56.350Z,2.80
2018-12-30T07:51:26.795Z,2.80
2018-12-30T07:53:57.302Z,2.80
2018-12-30T07:56:27.786Z,2.80
2018-12-30T07:58:58.291Z,2.80
2018-12-30T08:01:28.790Z,2.90
2018-12-30T08:03:59.268Z,2.80
2018-12-30T08:06:29.768Z,2.90
2018-12-30T08:09:00.238Z,2.90
2018-12-30T08:11:30.736Z,2.90
2018-12-30T08:14:01.209Z,2.90
2018-12-30T08:16:31.715Z,3.00
2018-12-30T08:19:02.206Z,3.00
2018-12-30T08:21:32.734Z,3.00
2018-12-30T08:24:03.785Z,3.00
2018-12-30T08:26:34.284Z,3.00
2018-12-30T08:29:04.869Z,3.00
2018-12-30T08:31:35.348Z,3.00
2018-12-30T08:34:05.840Z,3.10
2018-12-30T08:36:36.494Z,3.10
2018-12-30T08:39:08.244Z,3.10
2018-12-30T08:41:38.714Z,3.20
2018-12-30T08:44:09.288Z,3.20
2018-12-30T08:46:39.763Z,3.20
2018-12-30T08:49:10.259Z,3.20
2018-12-30T08:51:40.754Z,3.20
2018-12-30T08:54:11.233Z,3.20
2018-12-30T08:56:41.729Z,3.30
2018-12-30T08:59:12.213Z,3.30
2018-12-30T09:01:42.712Z,3.30
2018-12-30T09:04:13.188Z,3.30
2018-12-30T09:06:43.694Z,3.40
2018-12-30T09:09:14.180Z,3.50
2018-12-30T09:11:44.650Z,3.50
2018-12-30T09:14:15.150Z,3.50
2018-12-30T09:16:45.634Z,3.60
2018-12-30T09:19:16.132Z,3.60
2018-12-30T09:21:46.628Z,3.60
2018-12-30T09:24:17.105Z,3.60
2018-12-30T09:27:06.938Z,3.60
2018-12-30T09:29:37.427Z,3.60
2018-12-30T09:32:07.929Z,3.70
2018-12-30T09:34:38.426Z,3.70
2018-12-30T09:37:09.002Z,3.70
2018-12-30T09:39:39.487Z,3.70
2018-12-30T09:42:09.983Z,3.70
2018-12-30T09:44:40.480Z,3.70
2018-12-30T09:47:11.019Z,3.80
2018-12-30T09:49:41.800Z,3.80
2018-12-30T09:52:12.266Z,3.80
2018-12-30T09:54:42.735Z,3.80
2018-12-30T09:57:13.252Z,3.80
2018-12-30T09:59:43.749Z,3.80
2018-12-30T10:02:14.221Z,3.90
2018-12-30T10:04:44.719Z,3.90
2018-12-30T10:07:15.206Z,4.00
2018-12-30T10:09:45.706Z,4.00
2018-12-30T10:12:16.179Z,4.10
2018-12-30T10:14:46.686Z,4.20
2018-12-30T10:17:17.164Z,4.30
2018-12-30T10:19:47.672Z,4.30
2018-12-30T10:22:18.170Z,4.40
2018-12-30T10:24:48.649Z,4.40
2018-12-30T10:27:19.149Z,4.40
2018-12-30T10:29:49.629Z,4.50
2018-12-30T10:32:20.131Z,4.60
2018-12-30T10:34:50.598Z,4.60
2018-12-30T10:37:21.106Z,4.60
2018-12-30T10:39:51.579Z,4.60
2018-12-30T10:42:22.092Z,4.70
2018-12-30T10:44:52.586Z,4.70
2018-12-30T10:47:23.083Z,4.80
2018-12-30T10:49:53.583Z,4.90
2018-12-30T10:52:24.076Z,5.00
2018-12-30T10:54:54.551Z,5.00
2018-12-30T10:57:25.075Z,5.10
2018-12-30T10:59:55.551Z,5.10
2018-12-30T11:02:26.060Z,5.20
2018-12-30T11:04:56.611Z,5.20
2018-12-30T11:07:27.182Z,5.20
2018-12-30T11:10:00.004Z,5.20
2018-12-30T11:12:33.137Z,5.20
2018-12-30T11:15:03.711Z,5.10
2018-12-30T11:17:34.183Z,5.10
2018-12-30T11:20:06.114Z,5.10
2018-12-30T11:22:36.626Z,5.10
2018-12-30T11:25:07.631Z,5.10
2018-12-30T11:27:38.162Z,5.10
2018-12-30T11:30:10.052Z,5.00
2018-12-30T11:32:40.965Z,5.10
2018-12-30T11:35:11.505Z,5.10
2018-12-30T11:37:41.969Z,5.10
2018-12-30T11:40:12.460Z,5.10
2018-12-30T11:42:42.937Z,5.20
2018-12-30T11:45:13.449Z,5.30
2018-12-30T11:47:43.935Z,5.30
2018-12-30T11:50:14.406Z,5.40
2018-12-30T11:52:44.896Z,5.40
2018-12-30T11:55:15.367Z,5.40
2018-12-30T11:57:45.856Z,5.50
2018-12-30T12:00:16.390Z,5.50
2018-12-30T12:02:46.890Z,5.60
2018-12-30T12:05:17.367Z,5.60
2018-12-30T12:07:47.871Z,5.60
2018-12-30T12:10:18.343Z,5.60
2018-12-30T12:12:49.437Z,5.70
2018-12-30T12:15:20.082Z,5.70
2018-12-30T12:17:50.575Z,5.60
2018-12-30T12:20:21.034Z,5.60
2018-12-30T12:22:51.528Z,5.60
2018-12-30T12:25:21.987Z,5.60
2018-12-30T12:27:52.493Z,5.60
2018-12-30T12:30:22.991Z,5.70
2018-12-30T12:32:53.478Z,5.80
2018-12-30T12:35:23.950Z,5.80
2018-12-30T12:37:54.457Z,5.80
2018-12-30T12:40:25.004Z,5.90
2018-12-30T12:42:55.505Z,5.90
2018-12-30T12:45:25.988Z,5.90
2018-12-30T12:47:56.454Z,5.90
2018-12-30T12:50:26.978Z,5.90
2018-12-30T12:52:57.435Z,5.90
2018-12-30T12:55:27.977Z,5.80
2018-12-30T12:57:58.519Z,5.80
2018-12-30T13:00:28.980Z,5.70
2018-12-30T13:02:59.475Z,5.70
2018-12-30T13:05:29.935Z,5.70
2018-12-30T13:08:00.420Z,5.70
2018-12-30T13:10:30.896Z,5.60
2018-12-30T13:13:01.425Z,5.70
2018-12-30T13:15:31.872Z,5.70
2018-12-30T13:18:02.404Z,5.70
2018-12-30T13:20:32.891Z,5.70
2018-12-30T13:23:03.397Z,5.70
2018-12-30T13:25:34.132Z,5.70
2018-12-30T13:28:04.641Z,5.60
2018-12-30T13:30:35.099Z,5.60
2018-12-30T13:33:05.678Z,5.50
2018-12-30T13:35:43.177Z,5.40
2018-12-30T13:38:08.339Z,5.30
2018-12-30T13:40:38.830Z,5.30
2018-12-30T13:43:09.318Z,5.30
2018-12-30T13:45:39.807Z,5.20
2018-12-30T13:48:10.304Z,5.20
2018-12-30T13:50:40.783Z,5.20
2018-12-30T13:53:11.291Z,5.10
2018-12-30T13:55:41.763Z,5.10
2018-12-30T13:58:12.274Z,5.10
2018-12-30T14:00:42.750Z,5.00
2018-12-30T14:03:13.247Z,4.90
2018-12-30T14:05:44.578Z,4.90
2018-12-30T14:08:15.080Z,4.70
2018-12-30T14:10:45.551Z,4.70
2018-12-30T14:13:16.051Z,4.70
2018-12-30T14:15:50.792Z,4.60
2018-12-30T14:18:18.741Z,4.60
2018-12-30T14:20:49.208Z,4.60
2018-12-30T14:23:19.727Z,4.50
2018-12-30T14:25:50.200Z,4.50
2018-12-30T14:28:20.690Z,4.50
2018-12-30T14:30:51.161Z,4.50
2018-12-30T14:33:21.676Z,4.50
2018-12-30T14:35:52.148Z,4.50
2018-12-30T14:38:22.643Z,4.60
2018-12-30T14:40:53.114Z,4.60
2018-12-30T14:43:23.628Z,4.50
2018-12-30T14:45:54.102Z,4.50
2018-12-30T14:48:24.619Z,4.40
2018-12-30T14:50:55.092Z,4.40
2018-12-30T14:53:25.613Z,4.40
2018-12-30T14:55:56.069Z,4.40
2018-12-30T14:58:26.599Z,4.40
2018-12-30T15:00:58.940Z,4.30
2018-12-30T15:03:29.429Z,4.30
2018-12-30T15:05:59.935Z,4.30
2018-12-30T15:08:30.410Z,4.30
2018-12-30T15:11:00.914Z,4.20
2018-12-30T15:13:31.394Z,4.20
2018-12-30T15:16:01.894Z,4.20
2018-12-30T15:18:32.364Z,4.20
2018-12-30T15:21:02.881Z,4.10
2018-12-30T15:23:33.377Z,4.20
2018-12-30T15:26:03.857Z,4.10
2018-12-30T15:28:34.377Z,4.10
2018-12-30T15:31:04.930Z,4.10
2018-12-30T15:33:35.424Z,4.10
2018-12-30T15:36:05.902Z,4.10
2018-12-30T15:38:36.414Z,4.10
2018-12-30T15:41:06.894Z,4.10
2018-12-30T15:43:37.385Z,4.10
2018-12-30T15:46:07.859Z,4.10
2018-12-30T15:48:40.568Z,4.10
2018-12-30T15:51:11.028Z,4.10
2018-12-30T15:53:41.531Z,4.00
2018-12-30T15:56:12.057Z,4.00
2018-12-30T15:58:42.536Z,4.00
2018-12-30T16:01:13.047Z,4.00
2018-12-30T16:03:43.542Z,4.00
2018-12-30T16:06:14.022Z,4.00
2018-12-30T16:08:44.521Z,4.00
2018-12-30T16:11:15.005Z,4.00
2018-12-30T16:13:45.520Z,4.00
2018-12-30T16:16:16.058Z,4.00
2018-12-30T16:18:46.554Z,4.00
2018-12-30T16:21:17.042Z,3.90
2018-12-30T16:23:47.547Z,3.90
2018-12-30T16:26:18.021Z,3.90
2018-12-30T16:28:48.523Z,3.90
2018-12-30T16:31:27.902Z,3.90
2018-12-30T16:33:52.839Z,3.90
2018-12-30T16:36:23.313Z,3.80
2018-12-30T16:38:53.812Z,3.80
2018-12-30T16:41:24.285Z,3.80
2018-12-30T16:43:54.799Z,3.80
2018-12-30T16:46:25.264Z,3.80
2018-12-30T16:48:55.766Z,3.80
2018-12-30T16:51:26.270Z,3.80
2018-12-30T16:53:56.757Z,3.80
2018-12-30T16:56:27.251Z,3.80
2018-12-30T16:58:57.736Z,3.80
2018-12-30T17:01:28.211Z,3.80
2018-12-30T17:03:58.717Z,3.70
2018-12-30T17:06:33.889Z,3.70
2018-12-30T17:09:02.376Z,3.60
2018-12-30T17:11:32.886Z,3.60
2018-12-30T17:14:03.365Z,3.60
2018-12-30T17:16:33.834Z,3.60
2018-12-30T17:19:04.341Z,3.60
2018-12-30T17:21:34.873Z,3.60
2018-12-30T17:24:07.448Z,3.60
2018-12-30T17:26:37.960Z,3.60
2018-12-30T17:29:08.450Z,3.50
2018-12-30T17:31:42.888Z,3.50
2018-12-30T17:34:13.375Z,3.50
2018-12-30T17:36:43.855Z,3.50
2018-12-30T17:39:14.442Z,3.40
2018-12-30T17:41:45.013Z,3.30
2018-12-30T17:44:17.388Z,3.30
2018-12-30T17:46:47.760Z,3.30
2018-12-30T17:49:18.246Z,3.20
2018-12-30T17:51:48.750Z,3.20
2018-12-30T17:54:19.222Z,3.20
2018-12-30T17:56:49.723Z,3.10
2018-12-30T17:59:20.204Z,3.10
2018-12-30T18:01:50.707Z,3.10
2018-12-30T18:04:21.180Z,3.10
2018-12-30T18:06:51.692Z,3.10
2018-12-30T18:09:22.168Z,3.10
2018-12-30T18:11:52.693Z,3.10
2018-12-30T18:14:23.153Z,3.10
2018-12-30T18:16:53.653Z,3.20
2018-12-30T18:19:24.162Z,3.30
2018-12-30T18:21:54.641Z,3.30
2018-12-30T18:24:25.138Z,3.40
2018-12-30T18:26:55.619Z,3.40
2018-12-30T18:29:26.138Z,3.40
2018-12-30T18:31:56.897Z,3.30
2018-12-30T18:34:27.399Z,3.20
2018-12-30T18:36:57.975Z,3.20
2018-12-30T18:39:28.477Z,3.20
2018-12-30T18:41:58.942Z,3.20
2018-12-30T18:44:29.448Z,3.20
2018-12-30T18:46:59.912Z,3.20
2018-12-30T18:49:30.417Z,3.20
2018-12-30T18:52:00.898Z,3.20
2018-12-30T18:54:31.871Z,3.20
2018-12-30T18:57:02.344Z,3.20
2018-12-30T18:59:32.847Z,3.20
2018-12-30T19:02:04.187Z,3.20
2018-12-30T19:04:34.700Z,3.20
2018-12-30T19:07:05.246Z,3.20
2018-12-30T19:09:35.747Z,3.10
2018-12-30T19:12:06.224Z,3.10
2018-12-30T19:14:38.342Z,3.10
2018-12-30T19:17:08.818Z,3.10
2018-12-30T19:19:39.326Z,3.10
2018-12-30T19:22:09.807Z,3.10
2018-12-30T19:24:41.861Z,3.10
2018-12-30T19:27:12.328Z,3.10
2018-12-30T19:29:42.833Z,3.10
2018-12-30T19:32:13.375Z,3.10
2018-12-30T19:34:43.896Z,3.10
2018-12-30T19:37:14.408Z,3.10
2018-12-30T19:39:44.886Z,3.10
2018-12-30T19:42:15.383Z,3.10
2018-12-30T19:44:45.857Z,3.10
2018-12-30T19:47:16.373Z,3.10
2018-12-30T19:49:46.854Z,3.10
2018-12-30T19:52:17.352Z,3.10
2018-12-30T19:54:47.859Z,3.00
2018-12-30T19:57:18.324Z,3.00
2018-12-30T19:59:48.830Z,3.00
2018-12-30T20:02:19.336Z,3.00
2018-12-30T20:04:50.706Z,3.00
2018-12-30T20:07:21.181Z,3.00
2018-12-30T20:09:51.682Z,3.00
2018-12-30T20:12:22.164Z,3.10
2018-12-30T20:14:52.669Z,3.10
2018-12-30T20:17:23.131Z,3.10
2018-12-30T20:19:53.642Z,3.10
2018-12-30T20:22:24.120Z,3.10
2018-12-30T20:24:54.619Z,3.20
2018-12-30T20:27:25.087Z,3.20
2018-12-30T20:29:55.592Z,3.30
2018-12-30T20:32:26.064Z,3.30
2018-12-30T20:34:56.641Z,3.40
2018-12-30T20:37:27.151Z,3.30
2018-12-30T20:39:57.623Z,3.30
2018-12-30T20:42:28.113Z,3.30
2018-12-30T20:44:58.636Z,3.30
2018-12-30T20:47:29.813Z,3.30
2018-12-30T20:50:00.322Z,3.30
2018-12-30T20:52:30.816Z,3.30
2018-12-30T20:55:01.361Z,3.30
2018-12-30T20:57:31.826Z,3.20
2018-12-30T21:00:02.330Z,3.20
2018-12-30T21:02:32.817Z,3.20
2018-12-30T21:05:04.958Z,3.20
2018-12-30T21:07:35.436Z,3.10
2018-12-30T21:10:07.485Z,3.10
2018-12-30T21:12:37.953Z,3.00
2018-12-30T21:15:08.534Z,3.00
2018-12-30T21:17:39.044Z,3.00
2018-12-30T21:20:09.598Z,3.00
2018-12-30T21:22:40.107Z,2.90
2018-12-30T21:25:10.579Z,2.90
2018-12-30T21:27:41.117Z,2.90
2018-12-30T21:30:11.705Z,2.90
2018-12-30T21:32:42.174Z,2.90
2018-12-30T21:35:12.650Z,2.90
2018-12-30T21:37:43.166Z,2.80
2018-12-30T21:40:13.632Z,2.70
2018-12-30T21:42:44.222Z,2.70
2018-12-30T21:45:14.747Z,2.60
2018-12-30T21:47:46.017Z,2.60
2018-12-30T21:50:16.716Z,2.70
2018-12-30T21:52:47.220Z,2.70
2018-12-30T21:55:17.689Z,2.70
2018-12-30T21:57:48.359Z,2.70
2018-12-30T22:00:18.907Z,2.70
2018-12-30T22:02:49.415Z,2.70
2018-12-30T22:05:19.885Z,2.60
2018-12-30T22:07:50.382Z,2.60
2018-12-30T22:10:20.899Z,2.60
2018-12-30T22:12:51.362Z,2.50
2018-12-30T22:15:21.869Z,2.60
2018-12-30T22:17:52.362Z,2.60
2018-12-30T22:20:22.858Z,2.60
2018-12-30T22:22:53.337Z,2.60
2018-12-30T22:25:23.835Z,2.60
2018-12-30T22:27:54.343Z,2.60
2018-12-30T22:30:24.834Z,2.60
2018-12-30T22:32:55.346Z,2.60
2018-12-30T22:35:25.811Z,2.60
2018-12-30T22:37:56.311Z,2.60
2018-12-30T22:40:26.792Z,2.60
2018-12-30T22:42:57.298Z,2.60
2018-12-30T22:45:27.783Z,2.60
2018-12-30T22:47:58.274Z,2.50
2018-12-30T22:50:28.785Z,2.40
2018-12-30T22:52:59.270Z,2.40
2018-12-30T22:55:29.771Z,2.40
2018-12-30T22:58:00.243Z,2.40
2018-12-30T23:00:48.495Z,2.30
2018-12-30T23:03:19.001Z,2.30
2018-12-30T23:05:49.475Z,2.30
2018-12-30T23:08:19.976Z,2.30
2018-12-30T23:10:52.094Z,2.30
2018-12-30T23:13:22.584Z,2.40
2018-12-30T23:15:53.090Z,2.40
2018-12-30T23:18:23.561Z,2.40
2018-12-30T23:20:54.059Z,2.40
2018-12-30T23:23:24.551Z,2.30
2018-12-30T23:25:55.019Z,2.30
2018-12-30T23:28:25.521Z,2.30
2018-12-30T23:30:55.992Z,2.30
2018-12-30T23:33:26.484Z,2.30
2018-12-30T23:35:56.961Z,2.30
2018-12-30T23:38:27.456Z,2.30
2018-12-30T23:40:57.959Z,2.30
2018-12-30T23:43:28.427Z,2.30
2018-12-30T23:45:58.937Z,2.30
2018-12-30T23:48:29.433Z,2.20
2018-12-30T23:50:59.913Z,2.20
2018-12-30T23:53:30.410Z,2.20
2018-12-30T23:56:00.890Z,2.20
2018-12-30T23:58:32.285Z,2.20
